Time;durP1;ratioP1;P1;durP2;ratioP2;P2;SDS_P1;SDS_P2;PMS_P1;PMS_P2;Temp;Humidity;BMP_temperature;BMP_pressure;BME280_temperature;BME280_humidity;BME280_pressure;Samples;Min_cycle;Max_cycle;Signal;HPM_P1;HPM_P2
2022/03/25 00:01:39;;;;;;;32.67;17.10;;;8.00;59.40;;;;;;5013043;28;20569;-63
2022/03/25 00:04:04;;;;;;;29.40;18.33;;;7.90;60.00;;;;;;5023589;28;20200;-63
2022/03/25 00:06:31;;;;;;;25.87;17.53;;;7.80;59.30;;;;;;5019758;28;20207;-65
2022/03/25 00:08:56;;;;;;;27.60;17.43;;;7.80;59.40;;;;;;5016197;28;20226;-65
2022/03/25 00:11:22;;;;;;;22.10;15.43;;;7.80;59.20;;;;;;5011976;28;20225;-63
2022/03/25 00:13:47;;;;;;;23.97;16.90;;;7.80;59.60;;;;;;5010914;28;20184;-66
2022/03/25 00:16:13;;;;;;;25.20;15.77;;;7.80;60.00;;;;;;5018103;28;20243;-65
2022/03/25 00:18:39;;;;;;;27.77;17.10;;;7.80;60.20;;;;;;5015251;28;20689;-65
2022/03/25 00:21:05;;;;;;;26.97;16.80;;;7.70;60.40;;;;;;5013888;28;20204;-65
2022/03/25 00:23:30;;;;;;;27.27;16.50;;;7.70;60.40;;;;;;5019156;28;20201;-64
2022/03/25 00:25:56;;;;;;;26.07;16.47;;;7.70;60.50;;;;;;5019855;28;20656;-64
2022/03/25 00:28:22;;;;;;;25.93;16.57;;;7.70;61.40;;;;;;5014075;28;20196;-64
2022/03/25 00:30:49;;;;;;;29.23;18.33;;;7.70;61.00;;;;;;5015349;28;20220;-69
2022/03/25 00:33:16;;;;;;;23.13;16.37;;;7.70;61.10;;;;;;5014224;28;20205;-68
2022/03/25 00:35:42;;;;;;;22.87;15.80;;;7.60;61.40;;;;;;5005672;28;20208;-65
2022/03/25 00:38:08;;;;;;;32.50;17.87;;;7.60;62.30;;;;;;5011474;28;20215;-65
2022/03/25 00:40:34;;;;;;;34.07;17.60;;;7.60;62.70;;;;;;5013440;28;20294;-65
2022/03/25 00:43:00;;;;;;;23.63;16.00;;;7.50;62.40;;;;;;5014965;28;20556;-65
2022/03/25 00:45:28;;;;;;;24.97;15.97;;;7.50;63.00;;;;;;5016786;28;20232;-65
2022/03/25 00:47:55;;;;;;;24.17;15.87;;;7.50;63.40;;;;;;5017607;28;20196;-65
2022/03/25 00:50:20;;;;;;;25.27;18.77;;;7.40;64.00;;;;;;5016240;28;20250;-65
2022/03/25 00:52:46;;;;;;;24.57;16.43;;;7.40;63.50;;;;;;5014008;28;20245;-65
2022/03/25 00:55:12;;;;;;;25.27;17.00;;;7.40;63.70;;;;;;5011060;28;20191;-65
2022/03/25 00:57:37;;;;;;;24.77;15.13;;;7.40;63.90;;;;;;5020162;28;20194;-65
2022/03/25 01:00:04;;;;;;;25.37;16.50;;;7.40;63.70;;;;;;5017119;28;20584;-65
2022/03/25 01:02:30;;;;;;;28.30;17.03;;;7.30;63.80;;;;;;5023704;28;20188;-66
2022/03/25 01:04:55;;;;;;;34.77;17.87;;;7.30;64.70;;;;;;5015354;28;20681;-65
2022/03/25 01:07:21;;;;;;;23.63;15.70;;;7.30;65.60;;;;;;5009837;28;20188;-65
2022/03/25 01:09:46;;;;;;;25.60;17.30;;;7.20;66.10;;;;;;5013252;28;20639;-67
2022/03/25 01:12:12;;;;;;;25.33;16.57;;;7.10;66.50;;;;;;5022814;28;20215;-67
2022/03/25 01:14:38;;;;;;;27.23;18.30;;;6.90;67.10;;;;;;5003527;28;20250;-65
2022/03/25 01:17:04;;;;;;;28.77;17.93;;;6.90;67.20;;;;;;5009113;28;20651;-66
2022/03/25 01:19:29;;;;;;;28.67;18.50;;;6.90;66.10;;;;;;5014845;28;20225;-65
2022/03/25 01:21:56;;;;;;;29.23;18.77;;;6.90;66.00;;;;;;5015023;28;20236;-65
2022/03/25 01:24:21;;;;;;;30.23;18.40;;;6.80;66.10;;;;;;5010522;28;20202;-66
2022/03/25 01:26:47;;;;;;;31.37;20.27;;;6.70;65.80;;;;;;5009551;28;21094;-66
2022/03/25 01:29:13;;;;;;;30.07;21.03;;;6.70;65.70;;;;;;5015707;28;20195;-65
2022/03/25 01:31:39;;;;;;;28.97;18.13;;;6.70;64.60;;;;;;5010096;28;20207;-81
2022/03/25 01:34:05;;;;;;;34.07;20.10;;;6.60;64.10;;;;;;5011669;28;20194;-66
2022/03/25 01:36:31;;;;;;;28.27;20.23;;;6.70;64.00;;;;;;5012623;28;20667;-65
2022/03/25 01:39:01;;;;;;;30.20;19.23;;;6.60;63.80;;;;;;5015219;28;20184;-67
2022/03/25 01:41:26;;;;;;;26.33;16.83;;;6.70;63.80;;;;;;5012431;28;20214;-65
2022/03/25 01:43:54;;;;;;;31.70;18.93;;;6.70;64.00;;;;;;5013285;28;20567;-65
2022/03/25 01:46:20;;;;;;;27.77;18.70;;;6.70;63.80;;;;;;5011952;28;20231;-65
2022/03/25 01:48:46;;;;;;;31.37;18.90;;;6.70;63.70;;;;;;5013945;28;20207;-65
2022/03/25 01:51:15;;;;;;;27.53;17.93;;;6.70;63.60;;;;;;5011899;28;20219;-66
2022/03/25 01:53:41;;;;;;;26.37;16.67;;;6.60;64.40;;;;;;5016354;28;20177;-68
2022/03/25 01:56:06;;;;;;;29.83;18.17;;;6.60;66.40;;;;;;5013599;28;20206;-67
2022/03/25 01:58:33;;;;;;;27.73;17.60;;;6.60;66.00;;;;;;5013708;28;20170;-67
2022/03/25 02:01:02;;;;;;;28.17;19.13;;;6.50;66.30;;;;;;5011405;28;20200;-67
2022/03/25 02:03:27;;;;;;;32.33;18.43;;;6.50;67.10;;;;;;5014447;28;20192;-67
2022/03/25 02:05:53;;;;;;;26.60;17.77;;;6.50;67.20;;;;;;5014309;28;20250;-67
2022/03/25 02:08:18;;;;;;;26.87;17.43;;;6.40;67.40;;;;;;5012029;28;20183;-67
2022/03/25 02:10:45;;;;;;;23.83;15.83;;;6.40;67.90;;;;;;5014320;28;20216;-67
2022/03/25 02:13:11;;;;;;;31.70;17.80;;;6.50;68.40;;;;;;5011489;28;20175;-74
2022/03/25 02:15:42;;;;;;;29.00;17.20;;;6.40;68.70;;;;;;5004578;28;20188;-66
2022/03/25 02:18:17;;;;;;;27.07;17.77;;;6.40;70.20;;;;;;5014885;28;20338;-65
2022/03/25 02:20:43;;;;;;;28.43;18.37;;;6.40;71.60;;;;;;5006255;28;20198;-67
2022/03/25 02:23:09;;;;;;;30.90;19.73;;;6.30;69.10;;;;;;5018541;28;20192;-66
2022/03/25 02:25:35;;;;;;;30.73;19.40;;;6.30;69.10;;;;;;5016638;28;20231;-67
2022/03/25 02:28:04;;;;;;;32.70;18.37;;;6.20;69.30;;;;;;5009829;28;20207;-66
2022/03/25 02:30:30;;;;;;;26.00;17.83;;;6.20;70.10;;;;;;5011369;28;20207;-66
2022/03/25 02:33:00;;;;;;;24.73;18.80;;;6.20;70.40;;;;;;5015733;28;20688;-67
2022/03/25 02:35:36;;;;;;;30.37;17.87;;;6.20;70.70;;;;;;5006264;28;20185;-66
2022/03/25 02:38:03;;;;;;;33.23;20.00;;;6.10;71.60;;;;;;5013981;28;20515;-66
2022/03/25 02:40:28;;;;;;;28.20;17.97;;;6.10;72.90;;;;;;5015329;28;20196;-67
2022/03/25 02:42:54;;;;;;;32.23;18.70;;;6.10;73.10;;;;;;5028456;28;20282;-67
2022/03/25 02:45:20;;;;;;;25.77;17.63;;;6.10;73.20;;;;;;5011685;28;20658;-67
2022/03/25 02:47:46;;;;;;;25.60;18.30;;;6.10;73.20;;;;;;5022637;28;20294;-66
2022/03/25 02:50:12;;;;;;;25.80;17.10;;;6.00;73.50;;;;;;5014508;28;20196;-66
2022/03/25 02:52:37;;;;;;;28.57;18.33;;;6.00;74.60;;;;;;5015039;28;20212;-66
2022/03/25 02:55:03;;;;;;;29.67;17.87;;;6.00;76.60;;;;;;5021608;28;20191;-66
2022/03/25 02:57:28;;;;;;;30.17;18.93;;;6.00;76.10;;;;;;5011223;28;20204;-66
2022/03/25 02:59:54;;;;;;;28.10;17.10;;;6.00;75.00;;;;;;5020905;28;20219;-66
2022/03/25 03:02:19;;;;;;;24.90;17.57;;;5.90;75.10;;;;;;5010194;28;20199;-66
2022/03/25 03:04:45;;;;;;;26.47;16.70;;;5.90;75.70;;;;;;5008763;28;20188;-67
2022/03/25 03:07:16;;;;;;;22.17;15.57;;;5.90;76.10;;;;;;5008266;28;20199;-68
2022/03/25 03:09:42;;;;;;;34.07;18.60;;;5.90;76.80;;;;;;5008297;28;20180;-66
2022/03/25 03:12:08;;;;;;;24.67;16.63;;;5.90;80.00;;;;;;5008195;28;20214;-66
2022/03/25 03:14:34;;;;;;;27.57;15.47;;;5.90;84.30;;;;;;5008150;28;20685;-66
2022/03/25 03:17:00;;;;;;;26.97;16.67;;;5.80;86.10;;;;;;5008619;28;20173;-66
2022/03/25 03:19:25;;;;;;;26.13;16.53;;;5.80;86.00;;;;;;5008022;28;20177;-64
2022/03/25 03:21:52;;;;;;;23.37;16.23;;;5.80;86.80;;;;;;5007968;28;20658;-65
2022/03/25 03:24:18;;;;;;;27.33;18.30;;;5.80;88.10;;;;;;5007950;28;20176;-65
2022/03/25 03:26:44;;;;;;;30.17;19.70;;;5.80;90.40;;;;;;5007739;28;20246;-65
2022/03/25 03:29:09;;;;;;;26.83;18.07;;;5.70;90.20;;;;;;5007702;28;20685;-65
2022/03/25 03:31:35;;;;;;;39.37;24.50;;;5.70;91.00;;;;;;5008945;28;20250;-65
2022/03/25 03:34:00;;;;;;;24.53;17.83;;;5.70;91.90;;;;;;5008887;28;20188;-65
2022/03/25 03:36:26;;;;;;;28.10;17.83;;;5.60;91.70;;;;;;5008001;28;20274;-65
2022/03/25 03:38:51;;;;;;;26.97;18.30;;;5.50;90.90;;;;;;5007237;28;20172;-65
2022/03/25 03:41:17;;;;;;;27.23;16.90;;;5.50;90.90;;;;;;5007675;28;20181;-66
2022/03/25 03:43:42;;;;;;;29.97;18.70;;;5.40;90.90;;;;;;5007629;28;20184;-65
2022/03/25 03:46:08;;;;;;;26.53;17.93;;;5.40;91.40;;;;;;5007299;28;20195;-66
2022/03/25 03:48:33;;;;;;;26.87;16.70;;;5.40;91.00;;;;;;5007425;28;20177;-66
2022/03/25 03:50:59;;;;;;;28.43;15.97;;;5.40;90.80;;;;;;5007484;28;20258;-66
2022/03/25 03:53:24;;;;;;;25.17;16.87;;;5.40;90.70;;;;;;5007762;28;20658;-65
2022/03/25 03:55:50;;;;;;;27.53;17.73;;;5.40;90.90;;;;;;5007243;28;20235;-65
2022/03/25 03:58:15;;;;;;;28.13;17.00;;;5.40;90.70;;;;;;5007250;28;20606;-66
2022/03/25 04:00:41;;;;;;;30.70;18.17;;;5.40;90.60;;;;;;5007265;28;20173;-66
2022/03/25 04:03:07;;;;;;;28.57;16.40;;;5.30;90.70;;;;;;5007310;28;20662;-67
2022/03/25 04:05:32;;;;;;;23.90;16.50;;;5.30;91.10;;;;;;5007149;28;20183;-68
2022/03/25 04:07:58;;;;;;;31.27;18.97;;;5.30;91.20;;;;;;5007319;28;20271;-67
2022/03/25 04:10:23;;;;;;;32.10;17.87;;;5.30;91.70;;;;;;5006488;28;20205;-67
2022/03/25 04:12:49;;;;;;;29.27;17.13;;;5.30;92.00;;;;;;5006965;28;20208;-67
2022/03/25 04:15:15;;;;;;;26.70;18.43;;;5.20;92.10;;;;;;5006878;28;20180;-66
2022/03/25 04:17:43;;;;;;;29.73;18.73;;;5.20;92.60;;;;;;5006879;28;20185;-67
2022/03/25 04:20:11;;;;;;;32.23;18.60;;;5.20;92.50;;;;;;5004643;28;20258;-67
2022/03/25 04:22:36;;;;;;;26.30;16.80;;;5.20;93.00;;;;;;5006534;28;20231;-67
2022/03/25 04:25:05;;;;;;;23.03;16.30;;;5.20;93.20;;;;;;5019499;28;20207;-67
2022/03/25 04:27:30;;;;;;;26.83;18.33;;;5.10;93.90;;;;;;5026022;28;20246;-66
2022/03/25 04:29:55;;;;;;;26.77;16.37;;;5.10;94.20;;;;;;5010364;28;20196;-66
2022/03/25 04:32:21;;;;;;;32.20;18.00;;;5.10;94.60;;;;;;5006183;28;20234;-66
2022/03/25 04:34:46;;;;;;;33.40;18.67;;;5.10;94.80;;;;;;5017577;28;20199;-65
2022/03/25 04:37:12;;;;;;;32.83;18.17;;;5.10;95.20;;;;;;5025985;28;20527;-66
2022/03/25 04:39:39;;;;;;;31.77;17.70;;;5.10;95.20;;;;;;5024288;28;20271;-66
2022/03/25 04:42:04;;;;;;;31.97;16.87;;;5.10;95.30;;;;;;5026270;28;20662;-66
2022/03/25 04:44:30;;;;;;;31.83;19.07;;;5.10;95.50;;;;;;5013131;28;20223;-66
2022/03/25 04:46:56;;;;;;;26.40;18.33;;;5.00;95.70;;;;;;5006347;28;20559;-66
2022/03/25 04:49:22;;;;;;;31.40;17.87;;;5.10;96.10;;;;;;5013371;28;20203;-66
2022/03/25 04:51:48;;;;;;;30.53;18.07;;;5.10;96.30;;;;;;5025350;28;20262;-66
2022/03/25 04:54:14;;;;;;;33.33;19.83;;;5.10;96.40;;;;;;5015503;28;20201;-66
2022/03/25 04:56:39;;;;;;;26.90;18.00;;;5.10;96.70;;;;;;5006216;28;20189;-67
2022/03/25 04:59:05;;;;;;;29.20;19.77;;;5.10;96.90;;;;;;5011190;28;20207;-66
2022/03/25 05:01:30;;;;;;;30.73;17.83;;;5.00;96.70;;;;;;5025420;28;20203;-66
2022/03/25 05:03:56;;;;;;;25.73;17.87;;;5.00;97.20;;;;;;5018033;28;20204;-66
2022/03/25 05:06:21;;;;;;;29.67;18.50;;;5.00;97.30;;;;;;5006072;28;20656;-67
2022/03/25 05:08:47;;;;;;;28.80;18.47;;;5.00;97.60;;;;;;5008499;28;20214;-67
2022/03/25 05:11:12;;;;;;;33.00;19.83;;;5.00;98.00;;;;;;5025307;28;20670;-65
2022/03/25 05:13:38;;;;;;;31.07;17.70;;;5.00;97.90;;;;;;5019955;28;20211;-67
2022/03/25 05:16:03;;;;;;;28.30;18.33;;;5.00;98.20;;;;;;5005354;28;20203;-64
2022/03/25 05:18:29;;;;;;;33.60;19.37;;;5.00;98.20;;;;;;5005961;28;20184;-64
2022/03/25 05:20:55;;;;;;;32.80;21.97;;;5.00;98.30;;;;;;5011587;28;20188;-64
2022/03/25 05:23:20;;;;;;;30.97;20.13;;;5.10;98.10;;;;;;5018222;28;20225;-66
2022/03/25 05:25:46;;;;;;;35.10;17.53;;;5.10;97.80;;;;;;5015244;28;20223;-65
2022/03/25 05:28:11;;;;;;;33.70;19.07;;;5.10;97.00;;;;;;4974169;28;20674;-66
2022/03/25 05:30:37;;;;;;;26.93;18.40;;;5.10;97.00;;;;;;5018530;28;20250;-67
2022/03/25 05:33:02;;;;;;;26.33;17.67;;;5.00;97.00;;;;;;5015764;28;20188;-66
2022/03/25 05:35:29;;;;;;;32.43;18.50;;;4.90;97.80;;;;;;5011118;28;20180;-66
2022/03/25 05:37:55;;;;;;;29.80;19.27;;;4.80;97.30;;;;;;5015596;28;20199;-67
2022/03/25 05:40:23;;;;;;;31.80;19.17;;;4.90;97.50;;;;;;5011585;28;20666;-66
2022/03/25 05:42:50;;;;;;;35.10;18.33;;;4.90;97.70;;;;;;5016842;28;20183;-66
2022/03/25 05:45:18;;;;;;;30.80;18.10;;;4.90;97.20;;;;;;5013446;28;20206;-67
2022/03/25 05:47:43;;;;;;;26.97;18.37;;;4.70;98.40;;;;;;5012280;28;20179;-66
2022/03/25 05:50:11;;;;;;;29.90;19.17;;;4.80;98.50;;;;;;5006150;28;20196;-66
2022/03/25 05:52:38;;;;;;;30.80;19.03;;;4.90;98.50;;;;;;5012411;28;20196;-67
2022/03/25 05:55:06;;;;;;;29.27;17.50;;;5.00;98.30;;;;;;5012000;28;20265;-66
2022/03/25 05:57:32;;;;;;;33.07;19.70;;;5.10;97.20;;;;;;5013520;28;20200;-67
2022/03/25 05:59:59;;;;;;;30.00;19.47;;;5.00;97.30;;;;;;5007470;28;20974;-67
2022/03/25 06:02:27;;;;;;;30.13;19.73;;;5.00;97.50;;;;;;5013421;28;20274;-67
2022/03/25 06:04:53;;;;;;;29.23;18.50;;;5.10;97.60;;;;;;5007616;28;20342;-66
2022/03/25 06:07:19;;;;;;;34.77;19.70;;;5.00;97.80;;;;;;5021935;28;20199;-66
2022/03/25 06:09:45;;;;;;;34.37;19.03;;;4.90;98.30;;;;;;5010738;28;20192;-66
2022/03/25 06:12:11;;;;;;;31.00;19.57;;;5.10;98.60;;;;;;5016002;28;20215;-65
2022/03/25 06:14:37;;;;;;;28.27;17.63;;;5.20;98.40;;;;;;5007538;28;20207;-66
2022/03/25 06:17:03;;;;;;;32.07;18.00;;;5.20;97.90;;;;;;5017812;28;20204;-66
2022/03/25 06:19:29;;;;;;;32.70;19.20;;;5.30;98.00;;;;;;5014232;28;20187;-66
2022/03/25 06:21:56;;;;;;;25.20;18.83;;;5.30;97.80;;;;;;5011985;28;20579;-65
2022/03/25 06:24:24;;;;;;;31.60;19.93;;;5.40;97.50;;;;;;5009778;28;20250;-66
2022/03/25 06:26:49;;;;;;;35.80;21.27;;;5.50;97.60;;;;;;5010068;28;20227;-67
2022/03/25 06:29:15;;;;;;;32.20;18.20;;;5.60;97.70;;;;;;5017532;28;20664;-66
2022/03/25 06:31:41;;;;;;;27.47;20.10;;;5.60;97.70;;;;;;5020450;28;20211;-66
2022/03/25 06:34:06;;;;;;;28.70;17.93;;;5.70;97.40;;;;;;5021193;28;20188;-66
2022/03/25 06:36:31;;;;;;;33.40;19.37;;;5.80;97.70;;;;;;5016028;28;20555;-66
2022/03/25 06:38:57;;;;;;;35.27;19.70;;;5.90;97.70;;;;;;5017134;28;20242;-65
2022/03/25 06:41:23;;;;;;;30.87;18.97;;;5.90;97.10;;;;;;5017953;28;20558;-68
2022/03/25 06:43:49;;;;;;;30.23;20.00;;;6.00;97.10;;;;;;5020317;28;20203;-68
2022/03/25 06:46:17;;;;;;;30.13;18.50;;;6.00;96.70;;;;;;5019022;28;20544;-68
2022/03/25 06:48:43;;;;;;;43.33;24.20;;;6.10;96.50;;;;;;5023678;28;20199;-68
2022/03/25 06:51:09;;;;;;;37.50;21.97;;;6.10;96.40;;;;;;5015457;28;20227;-63
2022/03/25 06:53:35;;;;;;;30.70;18.83;;;6.20;96.30;;;;;;5017457;28;20720;-63
2022/03/25 06:56:01;;;;;;;27.53;17.63;;;6.30;96.10;;;;;;5006183;28;20208;-65
2022/03/25 06:58:27;;;;;;;30.67;16.87;;;6.40;96.40;;;;;;5010339;28;20185;-68
2022/03/25 07:00:53;;;;;;;27.03;16.80;;;6.50;95.50;;;;;;5012815;28;20213;-67
2022/03/25 07:03:19;;;;;;;28.17;16.27;;;6.60;95.40;;;;;;5009644;28;20700;-65
2022/03/25 07:05:44;;;;;;;30.20;15.77;;;6.70;95.00;;;;;;5009901;28;20197;-67
2022/03/25 07:08:10;;;;;;;25.70;16.17;;;6.80;94.90;;;;;;5011086;28;20197;-63
2022/03/25 07:10:36;;;;;;;32.07;17.10;;;6.90;94.30;;;;;;5014418;28;20696;-67
2022/03/25 07:13:02;;;;;;;28.07;15.97;;;6.90;94.00;;;;;;5013143;28;20177;-67
2022/03/25 07:15:28;;;;;;;27.33;16.47;;;7.10;93.00;;;;;;5018934;28;20201;-66
2022/03/25 07:17:53;;;;;;;29.30;15.90;;;7.20;93.60;;;;;;5016194;28;20295;-68
2022/03/25 07:20:21;;;;;;;24.97;15.53;;;7.30;92.90;;;;;;5018181;28;20566;-67
2022/03/25 07:22:49;;;;;;;22.37;14.17;;;7.40;91.70;;;;;;5012247;28;20188;-66
2022/03/25 07:25:16;;;;;;;22.60;15.93;;;7.40;91.20;;;;;;5022766;28;20211;-66
2022/03/25 07:27:43;;;;;;;27.10;14.77;;;7.50;91.80;;;;;;5016339;28;20684;-67
2022/03/25 07:30:10;;;;;;;22.37;15.30;;;7.60;91.20;;;;;;5016425;28;20306;-67
2022/03/25 07:32:35;;;;;;;29.27;16.70;;;7.70;90.90;;;;;;5015403;28;20292;-67
2022/03/25 07:35:01;;;;;;;27.03;17.07;;;7.80;90.40;;;;;;5014377;28;20278;-66
2022/03/25 07:37:26;;;;;;;26.10;16.20;;;7.90;88.80;;;;;;5013803;28;20186;-67
2022/03/25 07:39:52;;;;;;;25.83;15.87;;;8.10;89.50;;;;;;5015998;28;20256;-68
2022/03/25 07:42:18;;;;;;;26.00;16.23;;;8.10;90.00;;;;;;5014928;28;20236;-67
2022/03/25 07:44:43;;;;;;;30.13;16.63;;;8.20;88.90;;;;;;5018700;28;20237;-67
2022/03/25 07:47:11;;;;;;;34.70;17.53;;;8.30;87.90;;;;;;5019312;28;20255;-66
2022/03/25 07:49:39;;;;;;;28.43;17.50;;;8.40;86.60;;;;;;5015970;28;20225;-67
2022/03/25 07:52:06;;;;;;;27.27;15.70;;;8.40;86.90;;;;;;5023029;28;20306;-67
2022/03/25 07:54:32;;;;;;;22.27;13.53;;;8.50;85.40;;;;;;5019045;28;20194;-68
2022/03/25 07:56:58;;;;;;;31.03;16.27;;;8.70;84.10;;;;;;5010247;28;20207;-67
2022/03/25 07:59:28;;;;;;;30.23;17.37;;;8.80;83.40;;;;;;5023078;28;20256;-67
2022/03/25 08:01:54;;;;;;;27.37;16.23;;;8.90;83.00;;;;;;5014703;28;20234;-67
2022/03/25 08:04:23;;;;;;;32.93;18.20;;;9.00;84.30;;;;;;5014978;28;20319;-68
2022/03/25 08:06:49;;;;;;;29.30;17.70;;;9.00;83.90;;;;;;5021818;28;20695;-67
2022/03/25 08:09:14;;;;;;;29.90;18.23;;;9.10;83.30;;;;;;5017033;28;20279;-66
2022/03/25 08:11:40;;;;;;;37.17;17.53;;;9.20;81.60;;;;;;5004236;28;20271;-67
2022/03/25 08:14:06;;;;;;;34.90;17.10;;;9.30;83.20;;;;;;5013912;28;20689;-67
2022/03/25 08:16:32;;;;;;;36.23;17.30;;;9.40;80.00;;;;;;4991433;28;20680;-66
2022/03/25 08:18:58;;;;;;;29.83;16.87;;;9.50;80.60;;;;;;5015892;28;20241;-66
2022/03/25 08:21:24;;;;;;;29.30;17.50;;;9.60;80.70;;;;;;5009316;28;20676;-66
2022/03/25 08:29:18;;;;;;;29.53;17.60;;;10.10;74.80;;;;;;5014852;28;20251;-67
2022/03/25 08:31:44;;;;;;;27.67;16.53;;;10.20;75.50;;;;;;5010704;28;20207;-68
2022/03/25 08:34:14;;;;;;;36.33;19.13;;;10.30;75.30;;;;;;5009574;28;20214;-70
2022/03/25 08:36:40;;;;;;;34.73;17.37;;;10.50;75.10;;;;;;5014124;28;20188;-69
2022/03/25 08:39:05;;;;;;;33.00;16.90;;;10.60;74.80;;;;;;5025421;28;20187;-69
2022/03/25 08:41:31;;;;;;;30.83;17.47;;;10.60;74.20;;;;;;5015865;28;20195;-66
2022/03/25 08:43:56;;;;;;;31.07;17.50;;;10.60;74.00;;;;;;5023537;28;20200;-66
2022/03/25 08:46:22;;;;;;;32.60;18.63;;;10.60;74.30;;;;;;5017833;28;20952;-67
2022/03/25 08:48:48;;;;;;;35.83;19.60;;;10.80;75.00;;;;;;5009462;28;20245;-67
2022/03/25 08:51:14;;;;;;;30.37;18.47;;;10.90;75.80;;;;;;5013782;28;20596;-68
2022/03/25 08:53:40;;;;;;;27.83;17.57;;;11.10;74.10;;;;;;5013882;28;20192;-67
2022/03/25 08:56:06;;;;;;;28.47;17.73;;;11.10;74.60;;;;;;5016674;28;20190;-66
2022/03/25 08:58:31;;;;;;;34.33;20.57;;;11.20;74.80;;;;;;5017165;28;20203;-66
2022/03/25 09:00:57;;;;;;;38.53;20.77;;;11.30;74.40;;;;;;5017178;28;20187;-68
2022/03/25 09:03:23;;;;;;;37.83;20.53;;;11.50;75.80;;;;;;5015488;28;20564;-66
2022/03/25 09:05:48;;;;;;;30.07;19.13;;;11.60;75.80;;;;;;5018113;28;20183;-67
2022/03/25 09:08:15;;;;;;;42.03;21.50;;;11.60;74.40;;;;;;5013504;28;20205;-67
2022/03/25 09:10:40;;;;;;;32.73;21.53;;;11.70;75.70;;;;;;5014956;28;20200;-67
2022/03/25 09:13:07;;;;;;;33.33;20.13;;;11.90;75.40;;;;;;5016854;28;20195;-65
2022/03/25 09:15:32;;;;;;;33.43;20.10;;;12.00;74.80;;;;;;5015444;28;20187;-66
2022/03/25 09:17:58;;;;;;;37.30;20.63;;;12.00;74.80;;;;;;5015950;28;20550;-68
2022/03/25 09:20:23;;;;;;;36.37;22.03;;;12.10;75.20;;;;;;5010831;28;20204;-66
2022/03/25 09:22:51;;;;;;;31.07;21.30;;;12.20;76.00;;;;;;5021104;28;20185;-66
2022/03/25 09:25:17;;;;;;;34.57;23.20;;;12.30;76.00;;;;;;5014239;28;20208;-66
2022/03/25 09:27:42;;;;;;;36.57;20.87;;;12.60;74.80;;;;;;5013560;28;20267;-66
2022/03/25 09:30:09;;;;;;;38.90;21.10;;;12.70;74.80;;;;;;5017913;28;20200;-66
2022/03/25 09:32:35;;;;;;;36.50;22.63;;;12.70;74.80;;;;;;5013676;28;20212;-66
2022/03/25 09:35:10;;;;;;;40.13;24.10;;;12.70;74.30;;;;;;5004157;28;20295;-67
2022/03/25 09:37:37;;;;;;;33.97;19.90;;;12.70;73.70;;;;;;5014967;28;20732;-67
2022/03/25 09:40:08;;;;;;;35.67;21.60;;;12.80;75.50;;;;;;5010500;28;20215;-67
2022/03/25 09:42:36;;;;;;;34.73;22.33;;;12.90;74.30;;;;;;5017522;28;20611;-67
2022/03/25 09:45:04;;;;;;;37.20;21.80;;;13.00;74.60;;;;;;5019717;28;20203;-67
2022/03/25 09:47:31;;;;;;;39.20;23.60;;;13.00;75.10;;;;;;5021396;28;20206;-67
2022/03/25 09:50:01;;;;;;;41.60;23.67;;;13.00;73.50;;;;;;5010483;28;20283;-67
2022/03/25 09:52:29;;;;;;;32.53;20.93;;;13.00;74.20;;;;;;5018067;28;20398;-66
2022/03/25 09:54:55;;;;;;;36.43;23.33;;;13.20;74.30;;;;;;5004155;28;20204;-66
2022/03/25 09:57:21;;;;;;;34.20;21.20;;;13.30;73.50;;;;;;5009628;28;20183;-67
2022/03/25 09:59:46;;;;;;;40.60;27.03;;;13.30;73.00;;;;;;5007244;28;20199;-66
2022/03/25 10:02:12;;;;;;;41.73;25.37;;;13.40;73.30;;;;;;5012534;28;20191;-66
2022/03/25 10:04:37;;;;;;;40.30;25.37;;;13.40;73.10;;;;;;5010501;28;20737;-66
2022/03/25 10:07:27;;;;;;;39.33;24.10;;;13.40;74.40;;;;;;5004984;28;20314;-66
2022/03/25 10:10:08;;;;;;;38.63;24.40;;;13.50;74.30;;;;;;5004537;28;20227;-67
2022/03/25 10:12:35;;;;;;;38.17;24.53;;;13.60;74.30;;;;;;5018240;28;20204;-66
2022/03/25 10:15:11;;;;;;;42.73;25.17;;;13.70;73.30;;;;;;5019935;28;20238;-67
2022/03/25 10:17:54;;;;;;;41.27;25.03;;;13.70;74.60;;;;;;5014502;28;20183;-66
2022/03/25 10:20:28;;;;;;;40.23;25.80;;;13.80;73.60;;;;;;5013927;28;20197;-67
2022/03/25 10:23:06;;;;;;;41.43;25.20;;;13.80;72.60;;;;;;5014794;28;20202;-66
2022/03/25 10:25:36;;;;;;;45.67;26.97;;;13.90;74.00;;;;;;5007642;28;20223;-66
2022/03/25 10:28:04;;;;;;;34.97;24.73;;;13.90;72.70;;;;;;5012014;28;20177;-66
2022/03/25 10:30:36;;;;;;;41.73;24.53;;;14.00;74.20;;;;;;5005779;28;20283;-64
2022/03/25 10:33:10;;;;;;;39.80;24.63;;;14.20;74.00;;;;;;5012876;28;20180;-64
2022/03/25 10:36:09;;;;;;;42.30;25.50;;;14.30;73.60;;;;;;5014813;28;20558;-64
2022/03/25 10:38:44;;;;;;;38.90;25.30;;;14.50;73.40;;;;;;4953235;28;20211;-64
2022/03/25 10:41:12;;;;;;;40.63;25.80;;;14.60;73.30;;;;;;5011990;28;20222;-66
2022/03/25 10:44:08;;;;;;;39.93;25.33;;;14.60;71.60;;;;;;5010724;28;20712;-65
2022/03/25 10:46:36;;;;;;;36.93;21.73;;;14.60;73.10;;;;;;4995700;28;20228;-64
2022/03/25 10:49:05;;;;;;;38.50;23.73;;;14.80;72.10;;;;;;5014473;28;20203;-64
2022/03/25 10:51:33;;;;;;;33.93;21.97;;;14.90;70.70;;;;;;5017653;28;20302;-64
2022/03/25 10:54:10;;;;;;;33.67;23.87;;;14.90;69.90;;;;;;5015307;28;20216;-65
2022/03/25 10:56:51;;;;;;;33.73;22.43;;;15.00;69.60;;;;;;5017302;28;20274;-64
2022/03/25 10:59:36;;;;;;;35.80;21.87;;;15.20;70.00;;;;;;5009191;28;20199;-65
2022/03/25 11:02:04;;;;;;;35.73;23.50;;;15.30;69.90;;;;;;5019429;28;20188;-68
2022/03/25 11:04:30;;;;;;;36.73;21.70;;;15.50;69.90;;;;;;5007111;28;20213;-67
2022/03/25 11:07:01;;;;;;;31.77;20.50;;;15.50;69.50;;;;;;5012753;28;20529;-67
2022/03/25 11:09:27;;;;;;;33.50;20.53;;;15.80;68.70;;;;;;5017997;28;20806;-68
2022/03/25 11:11:55;;;;;;;32.93;20.23;;;16.00;68.10;;;;;;5016436;28;20216;-66
2022/03/25 11:14:24;;;;;;;31.87;19.97;;;16.00;67.30;;;;;;5016959;28;20232;-68
2022/03/25 11:17:01;;;;;;;30.57;20.60;;;16.10;67.00;;;;;;5025127;28;20195;-67
2022/03/25 11:19:30;;;;;;;34.27;20.40;;;16.10;67.50;;;;;;5017632;28;20267;-66
2022/03/25 11:21:59;;;;;;;31.00;20.27;;;16.30;66.90;;;;;;5013511;28;20299;-69
2022/03/25 11:24:33;;;;;;;29.70;19.57;;;16.40;66.10;;;;;;5015432;28;20255;-67
2022/03/25 11:27:24;;;;;;;35.27;20.17;;;16.50;65.80;;;;;;5018671;28;20233;-66
2022/03/25 11:29:55;;;;;;;31.47;19.33;;;16.60;64.40;;;;;;5022547;28;20540;-67
2022/03/25 11:32:21;;;;;;;26.17;18.80;;;16.70;65.00;;;;;;5022144;28;20213;-68
2022/03/25 11:35:17;;;;;;;26.10;17.40;;;16.80;65.40;;;;;;5018994;28;20212;-70
2022/03/25 11:37:42;;;;;;;28.20;18.70;;;16.90;65.20;;;;;;5021238;28;20178;-67
2022/03/25 11:40:14;;;;;;;27.53;18.07;;;16.90;64.80;;;;;;5018794;28;20203;-74
2022/03/25 11:42:45;;;;;;;23.13;15.80;;;17.00;65.10;;;;;;5008452;28;20716;-66
2022/03/25 11:45:32;;;;;;;23.00;16.33;;;17.10;64.00;;;;;;5014442;28;20220;-65
2022/03/25 11:48:04;;;;;;;22.00;15.00;;;17.40;63.80;;;;;;5013012;28;20229;-66
2022/03/25 11:50:43;;;;;;;25.30;15.33;;;17.40;62.50;;;;;;5019201;28;20299;-65
2022/03/25 11:53:12;;;;;;;25.67;15.20;;;17.50;63.40;;;;;;5015403;28;20206;-65
2022/03/25 11:56:04;;;;;;;28.37;16.17;;;17.60;63.10;;;;;;5004935;28;20195;-65
2022/03/25 11:58:56;;;;;;;21.80;13.93;;;17.80;61.60;;;;;;5009370;28;20213;-66
2022/03/25 12:01:23;;;;;;;27.17;15.27;;;18.20;62.40;;;;;;5023160;28;20182;-65
2022/03/25 12:03:52;;;;;;;22.93;14.20;;;18.40;61.00;;;;;;5014879;28;20240;-64
2022/03/25 12:06:22;;;;;;;21.93;15.60;;;18.30;60.00;;;;;;5019420;28;20446;-69
2022/03/25 12:09:00;;;;;;;24.10;14.63;;;18.30;59.00;;;;;;5010763;28;20642;-67
2022/03/25 12:11:55;;;;;;;23.90;15.23;;;18.40;58.20;;;;;;5013380;28;20205;-68
2022/03/25 12:14:27;;;;;;;22.27;15.43;;;18.50;59.50;;;;;;5016840;28;20259;-64
2022/03/25 12:16:53;;;;;;;24.30;15.23;;;18.70;57.50;;;;;;5012468;28;20676;-65
2022/03/25 12:19:38;;;;;;;24.37;13.53;;;18.90;56.90;;;;;;5012571;28;20668;-64
2022/03/25 12:22:28;;;;;;;21.53;13.33;;;19.00;57.70;;;;;;5024465;28;20216;-63
2022/03/25 12:24:56;;;;;;;15.83;9.80;;;19.20;56.70;;;;;;4996384;28;20699;-66
2022/03/25 12:27:23;;;;;;;23.23;12.27;;;19.50;57.30;;;;;;5021877;28;20733;-66
2022/03/25 12:29:54;;;;;;;12.23;9.07;;;19.60;56.20;;;;;;5016362;28;20233;-64
2022/03/25 12:32:21;;;;;;;13.10;8.33;;;19.50;56.30;;;;;;5019743;28;20297;-66
2022/03/25 12:35:07;;;;;;;15.97;8.53;;;19.80;56.40;;;;;;5012997;28;20209;-67
2022/03/25 12:37:44;;;;;;;13.67;9.63;;;19.90;55.20;;;;;;5022056;28;20177;-65
2022/03/25 12:40:29;;;;;;;19.17;10.67;;;19.80;55.60;;;;;;5019523;28;20203;-66
2022/03/25 12:43:02;;;;;;;14.30;9.93;;;19.90;54.40;;;;;;5014313;28;20201;-67